TimeEDT,TemperatureF,Dew PointF,Humidity,Sea Level PressureIn,VisibilityMPH,Wind Direction,Wind SpeedMPH,Gust SpeedMPH,PrecipitationIn,Events,Conditions,WindDirDegrees,DateUTC
12:51 AM,61.0,61.0,100,29.98,5.0,Calm,Calm,-,N/A,,Clear,0,2013-08-02 04:51:00
1:51 AM,61.0,61.0,100,29.98,4.0,Calm,Calm,-,N/A,,Clear,0,2013-08-02 05:51:00
2:15 AM,60.8,60.8,100,30.05,2.0,WSW,3.5,-,N/A,,Clear,240,2013-08-02 06:15:00
2:38 AM,60.8,60.8,100,30.05,1.0,Calm,Calm,-,N/A,,Scattered Clouds,0,2013-08-02 06:38:00
2:51 AM,60.1,60.1,100,29.97,1.2,Calm,Calm,-,N/A,,Scattered Clouds,0,2013-08-02 06:51:00
2:55 AM,60.8,60.8,100,30.05,3.0,Calm,Calm,-,N/A,,Scattered Clouds,0,2013-08-02 06:55:00
3:34 AM,60.8,60.8,100,30.05,1.5,Calm,Calm,-,N/A,,Clear,0,2013-08-02 07:34:00
3:37 AM,60.8,60.8,100,30.05,0.8,Calm,Calm,-,N/A,,Mist,0,2013-08-02 07:37:00
3:46 AM,60.8,60.8,100,30.05,0.2,Calm,Calm,-,N/A,Fog,Fog,0,2013-08-02 07:46:00
3:51 AM,59.0,59.0,100,29.97,0.5,Calm,Calm,-,N/A,Fog,Fog,0,2013-08-02 07:51:00
4:06 AM,57.2,57.2,100,30.06,0.8,SSW,3.5,-,N/A,,Mist,200,2013-08-02 08:06:00
4:10 AM,57.2,57.2,100,30.05,1.8,South,3.5,-,N/A,,Partly Cloudy,190,2013-08-02 08:10:00
4:12 AM,57.2,57.2,100,30.05,3.0,South,3.5,-,N/A,,Clear,190,2013-08-02 08:12:00
4:51 AM,57.9,57.9,100,29.97,3.0,Calm,Calm,-,N/A,,Clear,0,2013-08-02 08:51:00
5:51 AM,57.0,57.0,100,30.01,9.0,SSW,4.6,-,N/A,,Clear,200,2013-08-02 09:51:00
6:17 AM,57.2,57.2,100,30.08,2.5,SSW,3.5,-,N/A,,Scattered Clouds,200,2013-08-02 10:17:00
6:21 AM,57.2,57.2,100,30.08,1.0,SSW,3.5,-,N/A,,Mist,200,2013-08-02 10:21:00
6:24 AM,57.2,57.2,100,30.08,0.2,SSW,4.6,-,N/A,Fog,Fog,200,2013-08-02 10:24:00
6:51 AM,57.9,57.9,100,30.02,0.2,SSW,4.6,-,N/A,Fog,Fog,200,2013-08-02 10:51:00
7:11 AM,57.2,57.2,100,30.09,1.0,SSW,5.8,-,N/A,,Mist,200,2013-08-02 11:11:00
7:19 AM,59.0,59.0,100,30.10,0.8,SSW,4.6,-,N/A,,Mist,200,2013-08-02 11:19:00
7:51 AM,60.1,60.1,100,30.04,0.2,SW,3.5,-,N/A,Fog,Fog,220,2013-08-02 11:51:00
8:43 AM,60.8,60.8,100,30.09,1.0,Calm,Calm,-,N/A,,Mostly Cloudy,0,2013-08-02 12:43:00
8:51 AM,62.1,62.1,100,30.01,1.2,Calm,Calm,-,N/A,,Mostly Cloudy,0,2013-08-02 12:51:00
9:00 AM,62.6,62.6,100,30.08,3.0,SW,3.5,-,N/A,,Scattered Clouds,230,2013-08-02 13:00:00
9:51 AM,66.9,63.0,87,30.03,10.0,Calm,Calm,-,N/A,,Clear,0,2013-08-02 13:51:00
10:51 AM,71.1,59.0,66,30.04,10.0,West,6.9,-,N/A,,Scattered Clouds,280,2013-08-02 14:51:00
11:51 AM,72.0,55.9,57,30.05,10.0,West,5.8,-,N/A,,Partly Cloudy,260,2013-08-02 15:51:00
12:51 PM,73.9,55.9,53,30.05,10.0,West,6.9,-,N/A,,Partly Cloudy,280,2013-08-02 16:51:00
1:51 PM,75.0,60.1,60,30.04,10.0,SSW,9.2,-,N/A,,Scattered Clouds,210,2013-08-02 17:51:00
2:51 PM,75.9,60.1,58,30.05,10.0,WSW,8.1,-,N/A,,Mostly Cloudy,250,2013-08-02 18:51:00
3:51 PM,75.0,57.9,55,30.04,10.0,WNW,6.9,-,N/A,,Scattered Clouds,290,2013-08-02 19:51:00
4:51 PM,75.0,57.9,55,30.04,10.0,West,6.9,-,N/A,,Scattered Clouds,260,2013-08-02 20:51:00
5:51 PM,73.0,60.1,64,30.04,10.0,WSW,6.9,-,N/A,,Partly Cloudy,250,2013-08-02 21:51:00
6:51 PM,71.1,60.1,68,30.03,10.0,SW,4.6,-,N/A,,Clear,230,2013-08-02 22:51:00
7:51 PM,71.1,61.0,70,30.04,10.0,Calm,Calm,-,N/A,,Clear,0,2013-08-02 23:51:00
8:51 PM,66.0,61.0,84,30.04,10.0,South,3.5,-,N/A,,Clear,180,2013-08-03 00:51:00
9:51 PM,66.0,63.0,90,30.04,10.0,South,5.8,-,N/A,,Clear,190,2013-08-03 01:51:00
10:51 PM,64.9,62.1,90,30.05,10.0,Calm,Calm,-,N/A,,Clear,0,2013-08-03 02:51:00
11:51 PM,64.0,61.0,90,30.04,10.0,Calm,Calm,-,N/A,,Clear,0,2013-08-03 03:51:00